WetterOnline ( https://www.wetteronline.ch )

Wetter aktuell Regensburg

Aktuelles Wetter: Regensburg/Oberhub (371m)

6-stündlich | Neueste Meldungen
Ortszeit Temperatur Wetter
Fr, 07.08. 14:00 29.0° C wolkenlos
Fr, 07.08. 8:00 15.9° C wolkenlos
Fr, 07.08. 2:00 16.2° C wolkenlos
Do, 06.08. 20:00 25.1° C wolkenlos
Do, 06.08. 14:00 25.9° C wolkenlos
Do, 06.08. 8:00 12.7° C wolkenlos
Do, 06.08. 2:00 13.3° C wolkenlos
Mi, 05.08. 20:00 21.0° C wolkenlos
Ortszeit Temperatur Wetter
Fr, 07.08. 19:30 28.0° C fast wolkenlos
Fr, 07.08. 19:20 28.0° C fast wolkenlos
Fr, 07.08. 19:10 28.5° C leicht bewölkt
Fr, 07.08. 19:00 28.7° C leicht bewölkt
Fr, 07.08. 18:50 28.7° C leicht bewölkt
Fr, 07.08. 18:40 29.0° C wolkenlos
Fr, 07.08. 18:30 29.4° C leicht bewölkt
Fr, 07.08. 18:00 29.5° C wolkenlos
Fr, 07.08. 17:30 30.0° C wolkenlos
Fr, 07.08. 17:00 29.8° C wolkenlos
Fr, 07.08. 16:30 30.2° C wolkenlos
Fr, 07.08. 16:00 30.1° C wolkenlos
Ortszeit Relative Feuchte Sichtweite
Fr, 07.08. 14:00 41% 60 km
Fr, 07.08. 8:00 91% 40 km
Fr, 07.08. 2:00 89% 55 km
Do, 06.08. 20:00 49% >70 km
Do, 06.08. 14:00 41% >70 km
Do, 06.08. 8:00 94% 30 km
Do, 06.08. 2:00 94% 35 km
Mi, 05.08. 20:00 54% 65 km
Ortszeit Relative Feuchte Sichtweite
Fr, 07.08. 19:30 40% 60 km
Fr, 07.08. 19:20 40% -
Fr, 07.08. 19:10 38% -
Fr, 07.08. 19:00 39% >70 km
Fr, 07.08. 18:50 39% -
Fr, 07.08. 18:40 37% -
Fr, 07.08. 18:30 36% 19 km
Fr, 07.08. 18:00 36% 55 km
Fr, 07.08. 17:30 36% 40 km
Fr, 07.08. 17:00 36% 55 km
Fr, 07.08. 16:30 37% 50 km
Fr, 07.08. 16:00 37% 60 km
Ortszeit Niederschlagsmenge Niederschlagsart
Fr, 07.08. 14:00 0.0 l/m2 in 6 Std. -
Fr, 07.08. 8:00 0.0 l/m2 in 12 Std. -
Fr, 07.08. 2:00 0.0 l/m2 in 6 Std. -
Do, 06.08. 20:00 0.0 l/m2 in 12 Std. -
Do, 06.08. 14:00 0.0 l/m2 in 6 Std. -
Do, 06.08. 8:00 0.0 l/m2 in 12 Std. -
Do, 06.08. 2:00 0.0 l/m2 in 6 Std. -
Mi, 05.08. 20:00 0.0 l/m2 in 12 Std. -
Ortszeit Niederschlagsmenge Niederschlagsart
Fr, 07.08. 19:30 0.0 l/m2 in 1 Std. -
Fr, 07.08. 19:20 keine Meldung -
Fr, 07.08. 19:10 keine Meldung -
Fr, 07.08. 19:00 0.0 l/m2 in 1 Std. -
Fr, 07.08. 18:50 keine Meldung -
Fr, 07.08. 18:40 keine Meldung -
Fr, 07.08. 18:30 0.0 l/m2 in 1 Std. -
Fr, 07.08. 18:00 0.0 l/m2 in 1 Std. -
Fr, 07.08. 17:30 0.0 l/m2 in 1 Std. -
Fr, 07.08. 17:00 0.0 l/m2 in 1 Std. -
Fr, 07.08. 16:30 0.0 l/m2 in 1 Std. -
Fr, 07.08. 16:00 0.0 l/m2 in 1 Std. -
Ortszeit Stärke Spitze Richtung
km/h Bft. km/h Grad Sektor
Fr, 07.08. 14:00 7 2 25 120° SO
Fr, 07.08. 8:00 6 1 13 350° N
Fr, 07.08. 2:00 4 1 11 350° N
Do, 06.08. 20:00 6 1 22 40° NO
Do, 06.08. 14:00 7 2 19 50° NO
Do, 06.08. 8:00 4 1 11 350° N
Do, 06.08. 2:00 4 1 11 350° N
Mi, 05.08. 20:00 4 1 18 100° O
Ortszeit Stärke Spitze Richtung
km/h Bft. km/h Grad Sektor
Fr, 07.08. 19:30 7 2 14 120° SO
Fr, 07.08. 19:20 7 2 - 120° SO
Fr, 07.08. 19:10 6 1 - 130° SO
Fr, 07.08. 19:00 6 1 15 120° SO
Fr, 07.08. 18:50 6 1 - 120° SO
Fr, 07.08. 18:40 4 1 - 110° O
Fr, 07.08. 18:30 7 2 15 130° SO
Fr, 07.08. 18:00 7 2 22 150° SO
Fr, 07.08. 17:30 11 2 22 130° SO
Fr, 07.08. 17:00 11 2 22 140° SO
Fr, 07.08. 16:30 9 2 20 110° O
Fr, 07.08. 16:00 11 2 25 130° SO
Ortszeit Untergrenze Bedeckung Gattung
total tief tief mittel hoch
Fr, 07.08. 14:00 - 0/8 0/8 - - -
Fr, 07.08. 8:00 - 0/8 0/8 - - -
Fr, 07.08. 2:00 - 0/8 0/8 - - -
Do, 06.08. 20:00 - 0/8 0/8 - - -
Do, 06.08. 14:00 - 0/8 0/8 - - -
Do, 06.08. 8:00 - 0/8 0/8 - - -
Do, 06.08. 2:00 - 0/8 0/8 - - -
Mi, 05.08. 20:00 - 0/8 0/8 - - -
Ortszeit Bedeckungsgrad in Achtel und Wolkenuntergrenze
Fr, 07.08. 19:30 1(1800m)
Fr, 07.08. 19:20 1(1800m)
Fr, 07.08. 19:10 2(1800m)
Fr, 07.08. 19:00 2(1800m)
Fr, 07.08. 18:50 2(1800m)
Fr, 07.08. 18:40 keine Wolken
Fr, 07.08. 18:30 2(1800m)
Fr, 07.08. 18:00 1(1800m)
Fr, 07.08. 17:30 keine Wolken
Fr, 07.08. 17:00 keine Wolken
Fr, 07.08. 16:30 keine Wolken
Fr, 07.08. 16:00 keine Wolken
Ortszeit Luftdruck NN (hPa) Tendenz (hPa in 3 Std.)
Fr, 07.08. 14:00 1019 - 0,7
Fr, 07.08. 8:00 1022 + 0,5
Fr, 07.08. 2:00 1022 + 0,4
Do, 06.08. 20:00 1019 + 0,1
Do, 06.08. 14:00 1020 - 0,7
Do, 06.08. 8:00 1022 + 0,6
Do, 06.08. 2:00 1021 + 0,1
Mi, 05.08. 20:00 1018 - 0,2
Ortszeit Luftdruck NN (hPa) Tendenz (hPa in 3 Std.)
Fr, 07.08. 19:30 1018 - 0,5
Fr, 07.08. 19:20 1018 keine Meldung
Fr, 07.08. 19:10 1018 keine Meldung
Fr, 07.08. 19:00 1018 - 0,6
Fr, 07.08. 18:50 1018 keine Meldung
Fr, 07.08. 18:40 1018 keine Meldung
Fr, 07.08. 18:30 1018 - 0,7
Fr, 07.08. 18:00 1018 - 0,6
Fr, 07.08. 17:30 1018 - 0,8
Fr, 07.08. 17:00 1019 - 0,6
Fr, 07.08. 16:30 1019 - 0,7
Fr, 07.08. 16:00 1019 - 0,7
Ortszeit Schneehöhe (cm)
Fr, 07.08. 14:00 -
Fr, 07.08. 8:00 -
Fr, 07.08. 2:00 -
Do, 06.08. 20:00 -
Do, 06.08. 14:00 -
Do, 06.08. 8:00 -
Do, 06.08. 2:00 -
Mi, 05.08. 20:00 -
Ortszeit Schneehöhe (cm)
Fr, 07.08. 19:30 -
Fr, 07.08. 19:20 -
Fr, 07.08. 19:10 -
Fr, 07.08. 19:00 -
Fr, 07.08. 18:50 -
Fr, 07.08. 18:40 -
Fr, 07.08. 18:30 -
Fr, 07.08. 18:00 -
Fr, 07.08. 17:30 -
Fr, 07.08. 17:00 -
Fr, 07.08. 16:30 -
Fr, 07.08. 16:00 -
Link zu dieser Seite / Seite empfehlen

Das Wetter in ...